Time;durP1;ratioP1;P1;durP2;ratioP2;P2;SDS_P1;SDS_P2;PMS_P1;PMS_P2;Temp;Humidity;BMP_temperature;BMP_pressure;BME280_temperature;BME280_humidity;BME280_pressure;Samples;Min_cycle;Max_cycle;Signal;HPM_P1;HPM_P2
2020/12/11 00:00:06;;;;;;;215.97;104.27;;;;;;;-1.37;85.55;97304.77;1815753;77;20873;-81
2020/12/11 00:02:35;;;;;;;209.92;106.35;;;;;;;-1.36;85.39;97311.73;1846047;77;21325;-75
2020/12/11 00:05:04;;;;;;;;;;;;;;;-1.34;85.78;97311.80;1848768;76;21461;-76
2020/12/11 00:07:35;;;;;;;;;;;;;;;-1.41;86.02;97309.73;1848793;76;20245;-83
2020/12/11 00:10:03;;;;;;;192.03;91.60;;;;;;;-1.39;85.44;97315.63;1846083;77;20218;-75
2020/12/11 00:12:29;;;;;;;170.02;80.85;;;;;;;-1.43;85.72;97313.94;1846251;77;21106;-84
2020/12/11 00:14:55;;;;;;;185.20;81.08;;;;;;;-1.39;85.13;97310.83;1815295;77;21422;-84
2020/12/11 00:17:21;;;;;;;187.80;88.60;;;;;;;-1.48;84.98;97308.46;1846074;76;20857;-75
2020/12/11 00:19:47;;;;;;;177.62;85.05;;;;;;;-1.52;85.53;97314.45;1846190;76;21154;-75
2020/12/11 00:22:14;;;;;;;167.15;79.60;;;;;;;-1.51;86.62;97313.42;1846106;77;21096;-76
2020/12/11 00:24:42;;;;;;;157.27;75.52;;;;;;;-1.44;86.52;97318.97;1846130;76;21020;-76
2020/12/11 00:27:09;;;;;;;153.38;67.92;;;;;;;-1.40;86.59;97321.17;1846057;77;21099;-76
2020/12/11 00:29:34;;;;;;;154.65;73.60;;;;;;;-1.39;86.46;97321.47;1846083;77;21021;-76
2020/12/11 00:32:04;;;;;;;168.20;79.75;;;;;;;-1.37;86.73;97320.72;1846134;77;20905;-84
2020/12/11 00:34:31;;;;;;;168.50;81.67;;;;;;;-1.39;86.88;97317.48;1815618;77;21301;-80
2020/12/11 00:36:57;;;;;;;160.82;72.80;;;;;;;-1.37;86.46;97326.84;1846133;76;21094;-75
2020/12/11 00:39:23;;;;;;;156.00;76.82;;;;;;;-1.34;85.85;97325.61;1846255;77;22049;-83
2020/12/11 00:41:49;;;;;;;153.72;68.87;;;;;;;-1.38;86.00;97317.25;1846047;76;20979;-75
2020/12/11 00:44:15;;;;;;;148.78;70.17;;;;;;;-1.36;85.55;97318.38;1846247;77;21229;-75
2020/12/11 00:46:40;;;;;;;161.05;71.10;;;;;;;-1.44;85.75;97316.31;1815569;77;21119;-83
2020/12/11 00:49:07;;;;;;;156.25;61.50;;;;;;;-1.45;85.94;97315.20;1846292;77;20909;-75
2020/12/11 00:51:32;;;;;;;166.20;77.05;;;;;;;-1.40;85.53;97320.66;1846099;76;21457;-83
2020/12/11 00:53:58;;;;;;;184.63;88.58;;;;;;;-1.50;85.65;97320.35;1846144;76;20865;-75
2020/12/11 00:56:24;;;;;;;178.62;83.70;;;;;;;-1.56;86.75;97322.55;1846136;77;20952;-75
2020/12/11 00:58:50;;;;;;;173.65;81.70;;;;;;;-1.49;86.84;97324.11;1846246;77;20949;-75
2020/12/11 01:01:16;;;;;;;176.85;83.27;;;;;;;-1.43;86.66;97315.78;1846168;77;21099;-84
2020/12/11 01:03:43;;;;;;;168.17;82.95;;;;;;;-1.39;86.66;97320.13;1846133;77;21158;-83
2020/12/11 01:06:09;;;;;;;182.65;86.53;;;;;;;-1.34;86.24;97316.31;1815200;77;21059;-75
2020/12/11 01:08:35;;;;;;;173.15;81.40;;;;;;;-1.42;86.70;97307.59;1815462;77;21165;-84
2020/12/11 01:11:01;;;;;;;183.72;83.20;;;;;;;-1.36;86.44;97308.56;1815392;77;20905;-75
2020/12/11 01:13:27;;;;;;;184.22;87.40;;;;;;;-1.29;86.26;97306.62;1815503;77;21888;-84
2020/12/11 01:15:53;;;;;;;170.22;78.72;;;;;;;-1.27;86.16;97298.45;1846116;77;21176;-85
2020/12/11 01:18:20;;;;;;;175.90;75.22;;;;;;;-1.20;86.06;97307.14;1846024;77;21036;-84
2020/12/11 01:20:45;;;;;;;163.15;81.37;;;;;;;-1.24;86.19;97300.66;1846052;77;21151;-84
2020/12/11 01:23:11;;;;;;;156.37;74.35;;;;;;;-1.27;86.30;97300.59;1846138;77;21023;-75
2020/12/11 01:25:39;;;;;;;173.82;78.33;;;;;;;-1.22;86.36;97296.73;1846037;77;20936;-84
2020/12/11 01:28:04;;;;;;;168.13;80.60;;;;;;;-1.24;86.56;97296.66;1845949;77;21340;-75
2020/12/11 01:30:32;;;;;;;181.15;84.85;;;;;;;-1.24;86.31;97297.48;1846027;76;20925;-85
2020/12/11 01:32:58;;;;;;;193.02;86.57;;;;;;;-1.26;85.91;97305.39;1846030;77;21103;-84
2020/12/11 01:35:24;;;;;;;178.78;85.83;;;;;;;-1.24;85.70;97300.13;1845996;77;21115;-84
2020/12/11 01:37:50;;;;;;;196.55;95.38;;;;;;;-1.32;85.38;97299.10;1815596;77;21039;-75
2020/12/11 01:40:16;;;;;;;180.40;83.97;;;;;;;-1.38;85.87;97296.50;1846123;77;21011;-76
2020/12/11 01:42:42;;;;;;;171.28;82.85;;;;;;;-1.36;85.36;97301.92;1815545;77;20960;-84
2020/12/11 01:45:08;;;;;;;181.75;83.67;;;;;;;-1.46;85.61;97297.61;1846129;77;21139;-84
2020/12/11 01:47:39;;;;;;;180.60;85.45;;;;;;;-1.45;85.74;97296.08;1846153;77;21078;-75
2020/12/11 01:50:02;;;;;;;180.97;89.35;;;;;;;-1.42;85.93;97294.81;1845044;77;38141;-85
2020/12/11 01:52:29;;;;;;;184.90;92.47;;;;;;;-1.39;85.94;97290.38;1846046;76;21542;-76
2020/12/11 01:54:55;;;;;;;183.70;85.07;;;;;;;-1.40;85.82;97298.58;1846043;77;21528;-75
2020/12/11 01:57:25;;;;;;;187.77;90.35;;;;;;;-1.46;85.37;97294.43;1845979;77;20936;-76
2020/12/11 01:59:53;;;;;;;164.20;76.35;;;;;;;-1.57;85.61;97290.38;1845213;77;21151;-85
2020/12/11 02:02:22;;;;;;;189.25;88.33;;;;;;;-1.58;85.17;97294.87;1846039;77;21119;-84
2020/12/11 02:04:48;;;;;;;177.82;85.92;;;;;;;-1.71;85.49;97295.83;1846097;77;21591;-76
2020/12/11 02:07:14;;;;;;;208.02;96.10;;;;;;;-1.72;85.61;97290.20;1845994;76;21607;-85
2020/12/11 02:09:40;;;;;;;188.75;89.15;;;;;;;-1.73;85.58;97292.55;1846071;76;20909;-85
2020/12/11 02:12:06;;;;;;;207.18;95.53;;;;;;;-1.76;85.23;97286.88;1815441;77;20928;-85
2020/12/11 02:14:32;;;;;;;206.80;97.80;;;;;;;-1.81;85.33;97276.91;1846074;77;20984;-76
2020/12/11 02:17:03;;;;;;;169.97;85.40;;;;;;;-1.88;85.17;97277.98;1846059;77;21090;-84
2020/12/11 02:19:33;;;;;;;175.00;79.85;;;;;;;-1.94;84.74;97273.57;1846036;77;21131;-76
2020/12/11 02:22:06;;;;;;;179.03;88.78;;;;;;;-2.08;84.75;97265.71;1846060;77;21031;-85
2020/12/11 02:24:32;;;;;;;171.53;78.52;;;;;;;-2.21;85.30;97268.49;1845996;77;21236;-84
2020/12/11 02:26:58;;;;;;;189.20;89.28;;;;;;;-2.19;85.06;97265.09;1846083;76;21536;-75
2020/12/11 02:29:25;;;;;;;152.82;74.10;;;;;;;-2.23;85.44;97258.58;1846057;77;21319;-84
2020/12/11 02:31:51;;;;;;;173.97;80.67;;;;;;;-2.21;84.98;97253.89;1846023;77;21115;-85
2020/12/11 02:34:17;;;;;;;159.40;74.85;;;;;;;-2.36;84.78;97257.37;1846069;76;21091;-85
2020/12/11 02:36:43;;;;;;;175.57;78.62;;;;;;;-2.43;84.91;97261.91;1846063;77;21020;-75
2020/12/11 02:39:09;;;;;;;157.40;79.95;;;;;;;-2.51;84.92;97253.70;1846099;76;21042;-75
2020/12/11 02:41:35;;;;;;;181.12;80.60;;;;;;;-2.51;85.02;97260.84;1845999;77;21431;-75
2020/12/11 02:44:01;;;;;;;181.10;85.80;;;;;;;-2.60;84.96;97251.82;1846019;77;20888;-85
2020/12/11 02:46:28;;;;;;;256.70;113.10;;;;;;;-2.63;84.91;97250.13;1846057;77;21517;-84
2020/12/11 02:48:54;;;;;;;279.73;124.67;;;;;;;-2.72;84.92;97248.76;1846079;76;21639;-75
2020/12/11 02:51:20;;;;;;;328.80;133.80;;;;;;;-2.80;84.86;97250.34;1846139;77;21011;-75
2020/12/11 02:53:50;;;;;;;315.62;129.25;;;;;;;-2.83;85.04;97244.92;1846200;77;21603;-84
2020/12/11 02:56:20;;;;;;;289.55;125.22;;;;;;;-2.87;84.99;97247.72;1846105;77;21539;-85
2020/12/11 02:58:46;;;;;;;240.97;101.05;;;;;;;-2.82;85.51;97247.88;1846172;76;21253;-84
2020/12/11 03:01:12;;;;;;;211.12;90.40;;;;;;;-2.75;85.62;97250.49;1815675;77;21147;-76
2020/12/11 03:03:38;;;;;;;173.43;79.40;;;;;;;-2.74;85.55;97246.30;1846216;77;21171;-77
2020/12/11 03:06:04;;;;;;;170.35;72.78;;;;;;;-2.76;85.30;97253.66;1846286;77;21221;-76
2020/12/11 03:08:30;;;;;;;166.07;72.15;;;;;;;-2.78;85.43;97259.70;1846144;77;21479;-76
2020/12/11 03:10:56;;;;;;;164.40;77.27;;;;;;;-2.84;85.33;97258.70;1846166;76;20960;-85
2020/12/11 03:13:22;;;;;;;141.57;65.92;;;;;;;-2.91;85.74;97257.92;1846264;76;20928;-76
2020/12/11 03:15:48;;;;;;;172.25;77.55;;;;;;;-2.87;85.15;97261.78;1846260;76;21539;-85
2020/12/11 03:18:14;;;;;;;129.18;64.03;;;;;;;-2.96;85.77;97261.73;1815701;77;21206;-76
2020/12/11 03:20:40;;;;;;;147.70;63.40;;;;;;;-2.93;85.22;97264.47;1815478;77;20948;-85
2020/12/11 03:23:06;;;;;;;162.60;69.70;;;;;;;-3.03;85.35;97256.16;1815619;77;20925;-76
2020/12/11 03:25:32;;;;;;;176.60;75.40;;;;;;;-3.08;85.13;97259.44;1815639;77;21471;-76
2020/12/11 03:27:58;;;;;;;155.95;69.12;;;;;;;-3.10;86.07;97255.38;1815770;77;20961;-76
2020/12/11 03:30:24;;;;;;;180.80;79.75;;;;;;;-3.03;85.91;97262.79;1815492;77;21428;-85
2020/12/11 03:32:49;;;;;;;218.78;91.70;;;;;;;-2.99;86.29;97258.20;1846098;76;20896;-76
2020/12/11 03:35:15;;;;;;;212.57;87.97;;;;;;;-2.93;85.90;97265.79;1846124;77;20909;-85
2020/12/11 03:37:41;;;;;;;216.42;87.10;;;;;;;-2.94;85.23;97266.30;1846122;77;20900;-85
2020/12/11 03:40:07;;;;;;;222.73;95.12;;;;;;;-2.99;85.11;97275.91;1846244;77;21008;-85
2020/12/11 03:42:33;;;;;;;180.78;80.90;;;;;;;-3.08;84.95;97283.80;1846189;76;21463;-84
2020/12/11 03:44:59;;;;;;;186.40;79.85;;;;;;;-3.11;84.97;97291.67;1845963;77;20979;-85
2020/12/11 03:47:25;;;;;;;227.90;93.65;;;;;;;-3.18;84.69;97288.23;1846211;77;21131;-86
2020/12/11 03:49:51;;;;;;;208.53;84.70;;;;;;;-3.23;84.65;97287.55;1815538;77;21613;-76
2020/12/11 03:52:17;;;;;;;197.87;86.05;;;;;;;-3.25;84.57;97288.77;1846166;77;20909;-76
2020/12/11 03:54:43;;;;;;;209.72;84.83;;;;;;;-3.27;84.43;97292.14;1846198;76;21259;-76
2020/12/11 03:57:09;;;;;;;180.67;83.65;;;;;;;-3.30;84.61;97296.03;1846185;76;21048;-86
2020/12/11 03:59:35;;;;;;;180.72;79.90;;;;;;;-3.29;84.70;97300.30;1846167;77;20984;-76
2020/12/11 04:02:00;;;;;;;163.70;78.10;;;;;;;-3.28;84.69;97295.81;1846165;77;20964;-76
2020/12/11 04:04:26;;;;;;;159.85;75.20;;;;;;;-3.23;85.01;97292.86;1846315;77;21301;-86
2020/12/11 04:06:52;;;;;;;150.53;70.57;;;;;;;-3.16;84.93;97299.46;1789046;77;21369;-76
2020/12/11 04:09:18;;;;;;;172.60;71.97;;;;;;;-3.16;84.68;97294.97;1846052;76;21185;-76
2020/12/11 04:11:44;;;;;;;170.25;74.47;;;;;;;-3.23;84.49;97299.99;1846023;77;20929;-76
2020/12/11 04:14:10;;;;;;;178.15;79.97;;;;;;;-3.22;84.66;97294.99;1846107;77;20975;-76
2020/12/11 04:16:36;;;;;;;173.85;76.85;;;;;;;-3.16;84.76;97300.27;1846077;77;21645;-76
2020/12/11 04:19:02;;;;;;;163.20;70.25;;;;;;;-3.14;84.66;97295.56;1846196;76;21117;-86
2020/12/11 04:21:28;;;;;;;169.17;68.62;;;;;;;-3.12;84.68;97293.52;1846017;76;21591;-87
2020/12/11 04:23:54;;;;;;;156.07;69.85;;;;;;;-3.10;84.52;97290.64;1846147;76;20924;-78
2020/12/11 04:26:20;;;;;;;158.27;69.87;;;;;;;-3.20;84.22;97292.42;1846244;77;20972;-85
2020/12/11 04:28:46;;;;;;;159.90;74.22;;;;;;;-3.30;84.11;97292.05;1846026;76;21555;-86
2020/12/11 04:31:12;;;;;;;175.40;71.10;;;;;;;-3.32;84.64;97299.92;1846074;77;21153;-85
2020/12/11 04:33:38;;;;;;;137.90;64.42;;;;;;;-3.34;84.42;97296.13;1846026;77;20904;-76
2020/12/11 04:36:05;;;;;;;140.80;64.22;;;;;;;-3.39;83.94;97294.64;1846164;77;21158;-76
2020/12/11 04:38:31;;;;;;;142.05;64.92;;;;;;;-3.49;83.51;97296.41;1846057;76;21016;-85
2020/12/11 04:41:01;;;;;;;132.18;63.80;;;;;;;-3.65;83.74;97298.17;1846184;77;21615;-76
2020/12/11 04:43:27;;;;;;;140.80;65.35;;;;;;;-3.68;83.76;97295.91;1815586;77;21270;-86
2020/12/11 04:45:53;;;;;;;142.60;64.22;;;;;;;-3.66;83.90;97287.27;1846069;77;21525;-76
2020/12/11 04:48:19;;;;;;;137.92;60.75;;;;;;;-3.65;84.08;97282.28;1846104;77;20920;-85
2020/12/11 04:50:45;;;;;;;135.97;65.97;;;;;;;-3.75;83.89;97283.22;1846059;77;21067;-76
2020/12/11 04:53:14;;;;;;;155.95;64.27;;;;;;;-3.80;84.12;97290.45;1846107;77;21104;-83
2020/12/11 04:55:41;;;;;;;125.87;60.58;;;;;;;-3.75;84.34;97289.33;1846138;76;21143;-76
2020/12/11 04:58:07;;;;;;;325.48;117.67;;;;;;;-4.04;83.22;97287.92;1846023;76;21202;-85
2020/12/11 05:00:33;;;;;;;346.55;133.82;;;;;;;-4.09;83.26;97297.00;1815534;77;20881;-76
2020/12/11 05:02:59;;;;;;;236.95;91.70;;;;;;;-4.09;83.39;97305.45;1846038;77;20952;-77
2020/12/11 05:05:25;;;;;;;191.05;77.00;;;;;;;-4.09;83.26;97300.97;1846254;76;21076;-86
2020/12/11 05:07:51;;;;;;;151.30;64.70;;;;;;;-4.08;83.61;97303.92;1846134;77;21156;-76
2020/12/11 05:10:17;;;;;;;149.00;59.77;;;;;;;-4.09;83.30;97300.16;1846066;76;20992;-86
2020/12/11 05:12:43;;;;;;;131.52;60.05;;;;;;;-4.10;83.39;97306.44;1846055;77;20987;-76
2020/12/11 05:15:10;;;;;;;116.25;57.13;;;;;;;-4.08;83.39;97296.49;1846145;77;21448;-86
2020/12/11 05:17:41;;;;;;;120.37;55.80;;;;;;;-4.10;83.46;97298.02;1846067;77;21115;-75
2020/12/11 05:20:09;;;;;;;151.47;61.13;;;;;;;-4.09;83.63;97302.80;1846176;77;21118;-85
2020/12/11 05:22:37;;;;;;;156.60;70.12;;;;;;;-4.24;82.68;97310.13;1788767;77;21165;-76
2020/12/11 05:25:13;;;;;;;239.05;92.27;;;;;;;-4.27;82.75;97306.06;1846132;76;21480;-85
2020/12/11 05:27:39;;;;;;;246.45;94.40;;;;;;;-4.31;82.99;97305.64;1845456;77;21110;-85
2020/12/11 05:30:12;;;;;;;;;;;;;;;-4.27;83.13;97308.70;1848780;77;21087;-85
2020/12/11 05:32:51;;;;;;;118.15;53.23;;;;;;;-4.35;83.11;97312.36;1845994;77;21360;-76
2020/12/11 05:35:24;;;;;;;127.42;55.28;;;;;;;-4.45;83.12;97311.11;1846330;77;25056;-84
2020/12/11 05:38:02;;;;;;;119.30;54.03;;;;;;;-4.57;83.40;97310.39;1846208;77;21476;-84
2020/12/11 05:40:41;;;;;;;182.53;80.22;;;;;;;-4.58;83.34;97318.53;1846128;77;21099;-76
2020/12/11 05:43:12;;;;;;;;;;;;;;;-4.61;83.66;97322.39;1818508;77;21098;-84
2020/12/11 05:45:53;;;;;;;165.55;69.95;;;;;;;-4.58;83.61;97321.98;1846245;77;21179;-85
2020/12/11 05:48:21;;;;;;;142.80;65.20;;;;;;;-4.55;83.35;97329.50;1846107;77;21432;-85
2020/12/11 05:50:47;;;;;;;125.33;56.75;;;;;;;-4.59;83.22;97326.16;1816234;77;21519;-86
2020/12/11 05:53:13;;;;;;;178.72;83.80;;;;;;;-4.69;82.42;97322.58;1846079;77;20944;-76
2020/12/11 05:55:39;;;;;;;153.55;69.30;;;;;;;-4.73;82.66;97321.84;1846082;77;20999;-86
2020/12/11 05:58:10;;;;;;;140.88;60.55;;;;;;;-4.75;82.81;97319.91;1846100;77;21756;-85
2020/12/11 06:00:36;;;;;;;126.72;57.33;;;;;;;-4.74;82.81;97325.00;1846096;77;21091;-76
2020/12/11 06:03:02;;;;;;;119.33;55.55;;;;;;;-4.74;82.78;97324.18;1846082;77;21476;-85
2020/12/11 06:05:28;;;;;;;117.25;52.25;;;;;;;-4.77;82.97;97323.27;1846133;77;21103;-86
2020/12/11 06:07:54;;;;;;;126.25;56.35;;;;;;;-4.78;83.09;97322.45;1846134;77;20948;-76
2020/12/11 06:10:21;;;;;;;130.47;56.35;;;;;;;-4.86;82.96;97330.56;1846182;77;21327;-86
2020/12/11 06:12:47;;;;;;;145.72;69.17;;;;;;;-4.84;83.42;97333.31;1845837;77;21417;-79
2020/12/11 06:15:24;;;;;;;145.97;66.70;;;;;;;-4.82;83.30;97329.95;1846073;76;21555;-86
2020/12/11 06:18:12;;;;;;;175.42;74.40;;;;;;;-4.86;82.85;97331.38;1846080;77;21123;-86
2020/12/11 06:20:37;;;;;;;156.45;65.57;;;;;;;-4.83;82.55;97332.80;1846254;77;21127;-87
2020/12/11 06:23:26;;;;;;;155.72;64.12;;;;;;;-5.02;81.83;97337.52;1845989;77;21249;-85
2020/12/11 06:26:02;;;;;;;174.40;75.15;;;;;;;-4.99;82.36;97343.72;1846217;76;21535;-75
2020/12/11 06:28:45;;;;;;;181.20;73.05;;;;;;;-5.03;82.56;97343.31;1845148;77;21039;-76
2020/12/11 06:31:14;;;;;;;166.25;68.42;;;;;;;-5.00;82.44;97342.09;1845303;77;21023;-86
2020/12/11 06:33:47;;;;;;;122.72;54.18;;;;;;;-5.05;82.34;97338.70;1815595;77;21483;-85
2020/12/11 06:36:13;;;;;;;135.35;60.33;;;;;;;-5.04;82.68;97341.69;1845373;77;21355;-75
2020/12/11 06:38:52;;;;;;;126.60;58.13;;;;;;;-5.04;82.46;97344.80;1846138;76;20904;-85
2020/12/11 06:41:36;;;;;;;120.50;53.73;;;;;;;-5.02;83.12;97326.95;1846204;77;21083;-84
2020/12/11 06:44:13;;;;;;;162.65;72.10;;;;;;;-4.95;83.05;97324.64;1846367;77;21039;-75
2020/12/11 06:46:39;;;;;;;151.18;69.75;;;;;;;-4.91;82.84;97316.61;1846190;77;21087;-76
2020/12/11 06:49:15;;;;;;;172.70;75.32;;;;;;;-4.88;82.64;97318.03;1846221;76;21349;-85
2020/12/11 06:51:52;;;;;;;171.40;74.00;;;;;;;-4.85;82.64;97321.62;1815565;77;21560;-85
2020/12/11 06:54:45;;;;;;;179.75;76.28;;;;;;;-4.79;82.71;97322.62;1815768;77;21205;-76
2020/12/11 06:57:11;;;;;;;152.68;65.65;;;;;;;-4.79;82.67;97331.38;1848987;77;21584;-82
2020/12/11 06:59:41;;;;;;;185.75;75.10;;;;;;;-4.83;81.77;97326.19;1853666;76;20905;-74
2020/12/11 07:02:17;;;;;;;215.80;89.58;;;;;;;-4.84;81.74;97324.05;1844203;76;21377;-75
2020/12/11 07:04:45;;;;;;;204.93;88.52;;;;;;;-4.81;82.24;97324.16;1875099;76;21635;-85
2020/12/11 07:07:12;;;;;;;179.20;78.75;;;;;;;-4.71;82.42;97325.09;1875236;76;21097;-85
2020/12/11 07:09:42;;;;;;;310.88;114.77;;;;;;;-4.69;82.12;97332.34;1875098;75;21476;-76
2020/12/11 07:12:08;;;;;;;175.32;78.28;;;;;;;-4.71;81.99;97333.03;1843271;76;21948;-85
2020/12/11 07:14:34;;;;;;;209.07;93.92;;;;;;;-4.69;82.12;97334.48;1875130;76;21154;-76
2020/12/11 07:17:00;;;;;;;200.25;94.67;;;;;;;-4.67;81.60;97334.27;1843630;76;21428;-85
2020/12/11 07:19:28;;;;;;;189.72;86.20;;;;;;;-4.64;81.79;97333.35;1875022;76;20940;-76
2020/12/11 07:21:54;;;;;;;244.03;111.00;;;;;;;-4.71;81.01;97331.70;1874501;76;21603;-85
2020/12/11 07:24:20;;;;;;;234.43;108.17;;;;;;;-4.74;81.08;97334.25;1875143;76;20945;-75
2020/12/11 07:26:46;;;;;;;243.60;112.10;;;;;;;-4.67;81.31;97331.63;1875292;76;21353;-85
2020/12/11 07:29:16;;;;;;;321.57;144.00;;;;;;;-4.68;81.55;97331.33;1843576;76;21069;-85
2020/12/11 07:31:46;;;;;;;333.15;150.07;;;;;;;-4.68;81.10;97328.68;1875019;76;21560;-85
2020/12/11 07:34:15;;;;;;;312.85;138.50;;;;;;;-4.67;81.06;97330.30;1875132;76;21123;-76
2020/12/11 07:36:43;;;;;;;275.27;117.60;;;;;;;-4.69;81.15;97329.19;1875074;76;21107;-79
2020/12/11 07:39:17;;;;;;;239.60;111.37;;;;;;;-4.71;80.92;97330.38;1875445;76;23482;-76
2020/12/11 07:41:44;;;;;;;239.68;116.08;;;;;;;-4.67;81.05;97326.34;1875052;75;21013;-84
2020/12/11 07:44:11;;;;;;;239.85;117.33;;;;;;;-4.65;80.95;97326.44;1875191;75;21583;-82
2020/12/11 07:46:40;;;;;;;223.43;104.67;;;;;;;-4.51;81.36;97310.61;1843248;76;21112;-85
2020/12/11 07:49:05;;;;;;;;;;;;;;;-4.41;81.36;97315.81;1819103;76;21089;-85
2020/12/11 07:51:32;;;;;;;244.82;107.05;;;;;;;-4.35;81.40;97316.33;1875029;75;21175;-84
2020/12/11 07:53:58;;;;;;;198.28;97.72;;;;;;;-4.22;81.62;97315.51;1843370;76;21171;-85
2020/12/11 07:56:27;;;;;;;226.65;97.05;;;;;;;-4.07;81.52;97312.67;1874959;75;21099;-86
2020/12/11 07:58:53;;;;;;;197.70;95.67;;;;;;;-4.00;81.27;97313.48;1875290;76;21278;-76
2020/12/11 08:01:19;;;;;;;205.40;100.10;;;;;;;-3.91;81.30;97316.23;1875030;76;21527;-76
2020/12/11 08:03:45;;;;;;;194.52;90.72;;;;;;;-3.76;81.55;97317.31;1875067;76;21110;-85
2020/12/11 08:06:12;;;;;;;203.22;101.62;;;;;;;-3.60;81.70;97324.02;1874948;76;20861;-76
2020/12/11 08:08:38;;;;;;;219.72;100.92;;;;;;;-3.45;81.29;97325.92;1875059;76;21642;-77
2020/12/11 08:11:04;;;;;;;201.92;95.17;;;;;;;-3.33;80.95;97328.73;1874988;76;20886;-85
2020/12/11 08:13:30;;;;;;;282.50;118.85;;;;;;;-3.23;80.15;97323.84;1843664;76;21179;-83
2020/12/11 08:16:02;;;;;;;306.95;133.70;;;;;;;-3.14;79.93;97331.86;1875135;75;22033;-76
2020/12/11 08:18:31;;;;;;;323.85;141.92;;;;;;;-3.15;79.88;97332.89;1875047;76;21146;-84
2020/12/11 08:21:02;;;;;;;280.57;128.40;;;;;;;-3.05;80.21;97329.28;1843555;76;21465;-75
2020/12/11 08:23:41;;;;;;;261.68;122.00;;;;;;;-2.95;80.31;97326.98;1874964;76;21130;-83
2020/12/11 08:26:12;;;;;;;264.68;114.75;;;;;;;-2.79;80.92;97330.19;1845634;76;21504;-76
2020/12/11 08:28:38;;;;;;;256.35;121.30;;;;;;;-2.59;81.12;97328.23;1875147;76;21725;-84
2020/12/11 08:31:22;;;;;;;294.27;126.15;;;;;;;-2.56;80.96;97315.38;1843191;76;21024;-75
2020/12/11 08:33:49;;;;;;;265.12;115.97;;;;;;;-2.47;81.18;97307.98;1875016;76;21143;-85
2020/12/11 08:36:26;;;;;;;242.05;113.85;;;;;;;-2.41;81.28;97311.59;1875046;76;21016;-85
2020/12/11 08:39:23;;;;;;;256.30;113.60;;;;;;;-2.35;81.26;97313.40;1875216;75;21108;-75
2020/12/11 08:47:11;;;;;;;263.75;120.22;;;;;;;-2.26;81.07;97316.09;1875133;76;21547;-84
2020/12/11 08:49:48;;;;;;;265.73;125.58;;;;;;;-2.27;81.53;97311.81;1870244;76;21106;-75
2020/12/11 08:52:12;;;;;;;241.95;120.50;;;;;;;-2.20;81.44;97321.06;1830369;76;21115;-75
2020/12/11 08:54:38;;;;;;;209.70;107.20;;;;;;;-2.10;81.70;97317.41;1875106;75;21173;-85
2020/12/11 08:57:04;;;;;;;208.68;96.35;;;;;;;-1.99;81.91;97312.72;1875000;76;21501;-84
2020/12/11 08:59:30;;;;;;;201.82;98.15;;;;;;;-1.86;81.83;97306.49;1843671;76;21080;-75
2020/12/11 09:01:56;;;;;;;248.35;120.40;;;;;;;-1.82;81.59;97310.33;1843325;76;21132;-75
2020/12/11 09:04:22;;;;;;;277.05;143.95;;;;;;;-1.78;81.95;97304.89;1875240;76;20873;-84
2020/12/11 09:06:48;;;;;;;270.23;130.65;;;;;;;-1.68;82.16;97307.86;1875138;75;21439;-76
2020/12/11 09:09:14;;;;;;;670.50;283.82;;;;;;;-1.54;82.39;97302.72;1874961;76;21181;-84
2020/12/11 09:11:39;;;;;;;531.83;220.35;;;;;;;-1.45;82.27;97301.40;1875041;76;21563;-75
2020/12/11 09:14:05;;;;;;;260.88;127.05;;;;;;;-1.38;82.22;97301.30;1875031;76;20866;-84
2020/12/11 09:16:31;;;;;;;251.27;117.05;;;;;;;-1.32;82.07;97296.44;1875115;76;20917;-75
2020/12/11 09:18:57;;;;;;;266.12;119.53;;;;;;;-1.21;82.25;97293.03;1875215;75;21978;-75
2020/12/11 09:21:23;;;;;;;291.00;128.10;;;;;;;-1.10;82.36;97292.02;1843529;76;20885;-84
2020/12/11 09:23:49;;;;;;;284.70;129.63;;;;;;;-1.05;81.92;97290.30;1875184;76;20972;-84
2020/12/11 09:26:15;;;;;;;307.55;136.92;;;;;;;-1.04;82.04;97285.27;1875128;76;20854;-75
2020/12/11 09:28:45;;;;;;;223.87;103.58;;;;;;;-0.92;82.10;97286.67;1843677;76;21088;-84
2020/12/11 09:31:08;;;;;;;138.60;67.78;;;;;;;-0.85;81.74;97279.42;1874592;76;21163;-85
2020/12/11 09:33:40;;;;;;;127.12;61.00;;;;;;;-0.74;81.54;97286.63;1843631;76;21044;-75
2020/12/11 09:36:03;;;;;;;89.83;43.33;;;;;;;-0.66;81.81;97281.52;1874356;76;21135;-84
2020/12/11 09:38:29;;;;;;;108.97;57.20;;;;;;;-0.50;81.44;97269.42;1875082;76;21831;-76
2020/12/11 09:41:01;;;;;;;113.03;55.60;;;;;;;-0.38;81.87;97271.59;1875074;76;20897;-78
2020/12/11 09:46:15;;;;;;;149.10;73.57;;;;;;;-0.14;81.72;97255.95;1875037;76;21108;-76
2020/12/11 09:48:40;;;;;;;165.05;77.78;;;;;;;-0.02;81.67;97248.77;1870354;76;21147;-86
2020/12/11 09:51:36;;;;;;;173.07;82.53;;;;;;;0.10;81.76;97249.31;1874533;75;21131;-85
2020/12/11 09:54:06;;;;;;;148.30;70.87;;;;;;;0.18;81.77;97239.64;1870112;76;21131;-75
2020/12/11 09:56:26;;;;;;;156.28;76.57;;;;;;;0.31;81.85;97242.58;1870248;76;21111;-76
2020/12/11 09:59:01;;;;;;;95.65;51.50;;;;;;;0.41;81.91;97237.47;1874946;76;21151;-86
2020/12/11 10:01:45;;;;;;;86.22;41.42;;;;;;;0.52;80.76;97238.80;1842797;76;21076;-76
2020/12/11 10:03:58;;;;;;;97.92;47.55;;;;;;;0.55;80.83;97239.66;1840269;76;21139;-77
2020/12/11 10:06:25;;;;;;;99.25;54.90;;;;;;;0.66;81.02;97235.34;1875038;76;21053;-86
2020/12/11 10:08:52;;;;;;;91.60;48.15;;;;;;;0.72;81.12;97233.59;1816344;76;21325;-81
2020/12/11 10:11:19;;;;;;;94.45;45.55;;;;;;;0.82;81.22;97237.27;1874781;76;21071;-83
2020/12/11 10:13:47;;;;;;;103.17;51.48;;;;;;;0.90;80.67;97236.63;1874930;75;21111;-75
2020/12/11 10:16:17;;;;;;;119.33;61.13;;;;;;;0.99;80.63;97235.20;1875239;75;21051;-76
2020/12/11 10:18:43;;;;;;;;;;;;;;;1.04;81.16;97223.30;1846187;76;21132;-76
2020/12/11 10:21:11;;;;;;;106.78;59.63;;;;;;;1.12;81.05;97221.59;1874940;76;21145;-76
2020/12/11 10:23:38;;;;;;;107.45;54.25;;;;;;;1.20;80.68;97219.03;1843532;76;21123;-84
2020/12/11 10:26:04;;;;;;;128.60;59.08;;;;;;;1.23;80.72;97214.58;1874899;76;21429;-84
2020/12/11 10:28:31;;;;;;;109.78;51.68;;;;;;;1.28;80.38;97211.48;1843429;76;21108;-76
2020/12/11 10:30:57;;;;;;;102.97;53.33;;;;;;;1.35;80.15;97209.97;1875028;76;21020;-75
2020/12/11 10:33:23;;;;;;;108.30;54.90;;;;;;;1.39;80.44;97204.45;1874920;76;21214;-77
2020/12/11 10:35:49;;;;;;;139.50;64.85;;;;;;;1.46;80.69;97209.64;1874858;76;20869;-80
2020/12/11 10:38:15;;;;;;;124.45;63.08;;;;;;;1.52;80.48;97200.12;1843405;76;20870;-86
2020/12/11 10:40:41;;;;;;;138.95;66.35;;;;;;;1.58;80.35;97200.50;1843262;76;21609;-84
2020/12/11 10:43:07;;;;;;;125.05;63.73;;;;;;;1.61;80.31;97193.33;1875061;76;21676;-76
2020/12/11 10:45:33;;;;;;;122.87;62.88;;;;;;;1.68;80.51;97178.48;1874993;76;21295;-85
2020/12/11 10:47:59;;;;;;;157.40;82.20;;;;;;;1.77;80.27;97178.89;1816047;76;21632;-76
2020/12/11 10:50:25;;;;;;;141.60;78.17;;;;;;;1.72;80.13;97163.61;1874905;76;20964;-76
2020/12/11 10:52:51;;;;;;;148.07;80.20;;;;;;;1.89;80.38;97183.63;1874834;76;20972;-76
2020/12/11 10:55:17;;;;;;;140.43;74.47;;;;;;;1.94;80.61;97171.67;1815942;76;21420;-85
2020/12/11 10:57:42;;;;;;;119.02;65.80;;;;;;;1.97;80.31;97165.86;1874833;75;21278;-85
2020/12/11 11:00:08;;;;;;;138.40;78.92;;;;;;;1.97;80.11;97170.67;1874947;75;20905;-76
2020/12/11 11:02:35;;;;;;;131.25;71.12;;;;;;;2.00;80.47;97165.36;1874958;76;21002;-76
2020/12/11 11:05:05;;;;;;;129.60;70.42;;;;;;;2.07;80.53;97154.50;1843179;76;21108;-77
2020/12/11 11:07:31;;;;;;;148.72;70.83;;;;;;;2.13;80.61;97157.50;1874620;76;21535;-79
2020/12/11 11:12:51;;;;;;;113.92;61.35;;;;;;;2.20;80.27;97155.47;1875207;76;21007;-84
2020/12/11 11:20:46;;;;;;;133.25;61.80;;;;;;;2.36;79.93;97141.77;1805783;76;21544;-80
2020/12/11 11:28:03;;;;;;;139.15;70.40;;;;;;;2.54;80.31;97128.09;1843674;76;21964;-75
2020/12/11 11:30:30;;;;;;;128.90;67.40;;;;;;;2.58;80.49;97123.88;1875163;76;21555;-81
2020/12/11 11:32:56;;;;;;;103.62;56.28;;;;;;;2.64;80.52;97118.03;1843698;76;21143;-74
2020/12/11 11:35:22;;;;;;;101.38;56.25;;;;;;;2.68;79.90;97113.81;1875119;76;22109;-74